sensor_id;sensor_type;location;lat;lon;timestamp;temperature;humidity
6988;DHT22;3534;49.960;8.018;2022-10-16T00:01:46;16.10;99.90
6988;DHT22;3534;49.960;8.018;2022-10-16T00:04:13;16.10;99.90
6988;DHT22;3534;49.960;8.018;2022-10-16T00:06:40;16.00;99.90
6988;DHT22;3534;49.960;8.018;2022-10-16T00:09:06;16.10;99.90
6988;DHT22;3534;49.960;8.018;2022-10-16T00:11:38;16.10;99.90
6988;DHT22;3534;49.960;8.018;2022-10-16T00:14:06;16.10;99.90
6988;DHT22;3534;49.960;8.018;2022-10-16T00:16:34;16.10;99.90
6988;DHT22;3534;49.960;8.018;2022-10-16T00:19:00;16.00;99.90
6988;DHT22;3534;49.960;8.018;2022-10-16T00:21:29;16.10;99.90
6988;DHT22;3534;49.960;8.018;2022-10-16T00:23:58;16.00;99.90
6988;DHT22;3534;49.960;8.018;2022-10-16T00:26:26;16.00;99.90
6988;DHT22;3534;49.960;8.018;2022-10-16T00:28:55;16.00;99.90
6988;DHT22;3534;49.960;8.018;2022-10-16T00:31:22;16.00;99.90
6988;DHT22;3534;49.960;8.018;2022-10-16T00:33:49;16.00;99.90
6988;DHT22;3534;49.960;8.018;2022-10-16T00:36:18;16.00;99.90
6988;DHT22;3534;49.960;8.018;2022-10-16T00:38:45;16.00;99.90
6988;DHT22;3534;49.960;8.018;2022-10-16T00:41:13;16.00;99.90
6988;DHT22;3534;49.960;8.018;2022-10-16T00:43:42;16.00;99.90
6988;DHT22;3534;49.960;8.018;2022-10-16T00:46:15;16.00;99.90
6988;DHT22;3534;49.960;8.018;2022-10-16T00:48:45;16.00;99.90
6988;DHT22;3534;49.960;8.018;2022-10-16T00:51:13;16.00;99.90
6988;DHT22;3534;49.960;8.018;2022-10-16T00:53:41;16.00;99.90
6988;DHT22;3534;49.960;8.018;2022-10-16T00:56:07;16.00;99.90
6988;DHT22;3534;49.960;8.018;2022-10-16T00:58:34;16.00;99.90
6988;DHT22;3534;49.960;8.018;2022-10-16T01:01:01;16.00;99.90
6988;DHT22;3534;49.960;8.018;2022-10-16T01:03:31;16.00;99.90
6988;DHT22;3534;49.960;8.018;2022-10-16T01:06:15;16.00;99.90
6988;DHT22;3534;49.960;8.018;2022-10-16T01:08:55;16.00;99.90
6988;DHT22;3534;49.960;8.018;2022-10-16T01:11:27;16.00;99.90
6988;DHT22;3534;49.960;8.018;2022-10-16T01:14:00;16.00;99.90
6988;DHT22;3534;49.960;8.018;2022-10-16T01:16:35;16.00;99.90
6988;DHT22;3534;49.960;8.018;2022-10-16T01:19:11;16.00;99.90
6988;DHT22;3534;49.960;8.018;2022-10-16T01:21:41;16.00;99.90
6988;DHT22;3534;49.960;8.018;2022-10-16T01:24:13;16.00;99.90
6988;DHT22;3534;49.960;8.018;2022-10-16T01:27:07;16.00;99.90
6988;DHT22;3534;49.960;8.018;2022-10-16T01:29:38;16.00;99.90
6988;DHT22;3534;49.960;8.018;2022-10-16T01:32:11;16.00;99.90
6988;DHT22;3534;49.960;8.018;2022-10-16T01:34:47;16.00;99.90
6988;DHT22;3534;49.960;8.018;2022-10-16T01:37:18;16.00;99.90
6988;DHT22;3534;49.960;8.018;2022-10-16T01:39:47;15.90;99.90
6988;DHT22;3534;49.960;8.018;2022-10-16T01:42:20;15.90;99.90
6988;DHT22;3534;49.960;8.018;2022-10-16T01:44:48;15.80;99.90
6988;DHT22;3534;49.960;8.018;2022-10-16T01:47:17;15.80;99.90
6988;DHT22;3534;49.960;8.018;2022-10-16T01:49:46;15.80;99.90
6988;DHT22;3534;49.960;8.018;2022-10-16T01:52:16;15.80;99.90
6988;DHT22;3534;49.960;8.018;2022-10-16T01:54:46;15.80;99.90
6988;DHT22;3534;49.960;8.018;2022-10-16T01:57:14;15.80;99.90
6988;DHT22;3534;49.960;8.018;2022-10-16T01:59:46;15.80;99.90
6988;DHT22;3534;49.960;8.018;2022-10-16T02:02:15;15.80;99.90
6988;DHT22;3534;49.960;8.018;2022-10-16T02:04:46;15.80;99.90
6988;DHT22;3534;49.960;8.018;2022-10-16T02:07:14;15.80;99.90
6988;DHT22;3534;49.960;8.018;2022-10-16T02:09:41;15.80;99.90
6988;DHT22;3534;49.960;8.018;2022-10-16T02:12:12;15.80;99.90
6988;DHT22;3534;49.960;8.018;2022-10-16T02:14:40;15.80;99.90
6988;DHT22;3534;49.960;8.018;2022-10-16T02:17:13;15.80;99.90
6988;DHT22;3534;49.960;8.018;2022-10-16T02:19:41;15.80;99.90
6988;DHT22;3534;49.960;8.018;2022-10-16T02:22:10;15.90;99.90
6988;DHT22;3534;49.960;8.018;2022-10-16T02:24:43;15.90;99.90
6988;DHT22;3534;49.960;8.018;2022-10-16T02:27:17;15.90;99.90
6988;DHT22;3534;49.960;8.018;2022-10-16T02:29:49;15.90;99.90
6988;DHT22;3534;49.960;8.018;2022-10-16T02:32:23;15.90;99.90
6988;DHT22;3534;49.960;8.018;2022-10-16T02:34:50;15.90;99.90
6988;DHT22;3534;49.960;8.018;2022-10-16T02:37:18;15.90;99.90
6988;DHT22;3534;49.960;8.018;2022-10-16T02:39:45;15.90;99.90
6988;DHT22;3534;49.960;8.018;2022-10-16T02:42:12;15.90;99.90
6988;DHT22;3534;49.960;8.018;2022-10-16T02:44:39;15.90;99.90
6988;DHT22;3534;49.960;8.018;2022-10-16T02:47:06;15.90;99.90
6988;DHT22;3534;49.960;8.018;2022-10-16T02:49:34;15.90;99.90
6988;DHT22;3534;49.960;8.018;2022-10-16T02:52:01;15.90;99.90
6988;DHT22;3534;49.960;8.018;2022-10-16T02:54:28;15.90;99.90
6988;DHT22;3534;49.960;8.018;2022-10-16T02:56:55;15.90;99.90
6988;DHT22;3534;49.960;8.018;2022-10-16T02:59:21;15.90;99.90
6988;DHT22;3534;49.960;8.018;2022-10-16T03:01:48;15.90;99.90
6988;DHT22;3534;49.960;8.018;2022-10-16T03:04:15;15.90;99.90
6988;DHT22;3534;49.960;8.018;2022-10-16T03:06:43;15.90;99.90
6988;DHT22;3534;49.960;8.018;2022-10-16T03:09:09;15.80;99.90
6988;DHT22;3534;49.960;8.018;2022-10-16T03:11:36;15.80;99.90
6988;DHT22;3534;49.960;8.018;2022-10-16T03:14:03;15.80;99.90
6988;DHT22;3534;49.960;8.018;2022-10-16T03:16:29;15.80;99.90
6988;DHT22;3534;49.960;8.018;2022-10-16T03:18:56;15.80;99.90
6988;DHT22;3534;49.960;8.018;2022-10-16T03:21:23;15.80;99.90
6988;DHT22;3534;49.960;8.018;2022-10-16T03:23:51;15.80;99.90
6988;DHT22;3534;49.960;8.018;2022-10-16T03:26:18;15.80;99.90
6988;DHT22;3534;49.960;8.018;2022-10-16T03:28:44;15.80;99.90
6988;DHT22;3534;49.960;8.018;2022-10-16T03:31:11;15.80;99.90
6988;DHT22;3534;49.960;8.018;2022-10-16T03:33:38;15.80;99.90
6988;DHT22;3534;49.960;8.018;2022-10-16T03:36:05;15.80;99.90
6988;DHT22;3534;49.960;8.018;2022-10-16T03:38:33;15.90;99.90
6988;DHT22;3534;49.960;8.018;2022-10-16T03:41:01;15.90;99.90
6988;DHT22;3534;49.960;8.018;2022-10-16T03:43:29;15.80;99.90
6988;DHT22;3534;49.960;8.018;2022-10-16T03:45:55;15.90;99.90
6988;DHT22;3534;49.960;8.018;2022-10-16T03:48:22;15.90;99.90
6988;DHT22;3534;49.960;8.018;2022-10-16T03:50:49;15.80;99.90
6988;DHT22;3534;49.960;8.018;2022-10-16T03:53:17;15.90;99.90
6988;DHT22;3534;49.960;8.018;2022-10-16T03:55:44;15.90;99.90
6988;DHT22;3534;49.960;8.018;2022-10-16T03:58:12;15.90;99.90
6988;DHT22;3534;49.960;8.018;2022-10-16T04:00:40;15.90;99.90
6988;DHT22;3534;49.960;8.018;2022-10-16T04:03:07;15.90;99.90
6988;DHT22;3534;49.960;8.018;2022-10-16T04:05:34;15.90;99.90
6988;DHT22;3534;49.960;8.018;2022-10-16T04:08:01;15.90;99.90
6988;DHT22;3534;49.960;8.018;2022-10-16T04:10:27;15.90;99.90
6988;DHT22;3534;49.960;8.018;2022-10-16T04:12:54;15.90;99.90
6988;DHT22;3534;49.960;8.018;2022-10-16T04:15:23;15.90;99.90
6988;DHT22;3534;49.960;8.018;2022-10-16T04:17:50;15.80;99.90
6988;DHT22;3534;49.960;8.018;2022-10-16T04:20:17;15.70;99.90
6988;DHT22;3534;49.960;8.018;2022-10-16T04:22:44;15.70;99.90
6988;DHT22;3534;49.960;8.018;2022-10-16T04:25:11;15.70;99.90
6988;DHT22;3534;49.960;8.018;2022-10-16T04:27:38;15.70;99.90
6988;DHT22;3534;49.960;8.018;2022-10-16T04:30:06;15.70;99.90
6988;DHT22;3534;49.960;8.018;2022-10-16T04:32:35;15.70;99.90
6988;DHT22;3534;49.960;8.018;2022-10-16T04:35:01;15.70;99.90
6988;DHT22;3534;49.960;8.018;2022-10-16T04:37:28;15.80;99.90
6988;DHT22;3534;49.960;8.018;2022-10-16T04:39:55;15.80;99.90
6988;DHT22;3534;49.960;8.018;2022-10-16T04:42:22;15.80;99.90
6988;DHT22;3534;49.960;8.018;2022-10-16T04:44:48;15.80;99.90
6988;DHT22;3534;49.960;8.018;2022-10-16T04:47:15;15.90;99.90
6988;DHT22;3534;49.960;8.018;2022-10-16T04:49:43;15.80;99.90
6988;DHT22;3534;49.960;8.018;2022-10-16T04:52:10;15.80;99.90
6988;DHT22;3534;49.960;8.018;2022-10-16T04:54:36;15.80;99.90
6988;DHT22;3534;49.960;8.018;2022-10-16T04:57:03;15.90;99.90
6988;DHT22;3534;49.960;8.018;2022-10-16T04:59:30;15.80;99.90
6988;DHT22;3534;49.960;8.018;2022-10-16T05:01:57;15.80;99.90
6988;DHT22;3534;49.960;8.018;2022-10-16T05:04:23;15.90;99.90
6988;DHT22;3534;49.960;8.018;2022-10-16T05:06:51;15.80;99.90
6988;DHT22;3534;49.960;8.018;2022-10-16T05:09:18;15.90;99.90
6988;DHT22;3534;49.960;8.018;2022-10-16T05:11:45;15.80;99.90
6988;DHT22;3534;49.960;8.018;2022-10-16T05:14:12;15.80;99.90
6988;DHT22;3534;49.960;8.018;2022-10-16T05:16:38;15.80;99.90
6988;DHT22;3534;49.960;8.018;2022-10-16T05:19:05;15.80;99.90
6988;DHT22;3534;49.960;8.018;2022-10-16T05:21:32;15.80;99.90
6988;DHT22;3534;49.960;8.018;2022-10-16T05:24:00;15.80;99.90
6988;DHT22;3534;49.960;8.018;2022-10-16T05:26:27;15.80;99.90
6988;DHT22;3534;49.960;8.018;2022-10-16T05:28:53;15.80;99.90
6988;DHT22;3534;49.960;8.018;2022-10-16T05:31:20;15.80;99.90
6988;DHT22;3534;49.960;8.018;2022-10-16T05:33:47;15.80;99.90
6988;DHT22;3534;49.960;8.018;2022-10-16T05:36:14;15.70;99.90
6988;DHT22;3534;49.960;8.018;2022-10-16T05:38:40;15.70;99.90
6988;DHT22;3534;49.960;8.018;2022-10-16T05:41:10;15.70;99.90
6988;DHT22;3534;49.960;8.018;2022-10-16T05:43:37;15.80;99.90
6988;DHT22;3534;49.960;8.018;2022-10-16T05:46:05;15.80;99.90
6988;DHT22;3534;49.960;8.018;2022-10-16T05:48:32;15.80;99.90
6988;DHT22;3534;49.960;8.018;2022-10-16T05:51:00;15.80;99.90
6988;DHT22;3534;49.960;8.018;2022-10-16T05:53:28;15.80;99.90
6988;DHT22;3534;49.960;8.018;2022-10-16T05:55:55;15.80;99.90
6988;DHT22;3534;49.960;8.018;2022-10-16T05:58:24;15.80;99.90
6988;DHT22;3534;49.960;8.018;2022-10-16T06:00:55;15.80;99.90
6988;DHT22;3534;49.960;8.018;2022-10-16T06:03:22;15.90;99.90
6988;DHT22;3534;49.960;8.018;2022-10-16T06:05:49;15.80;99.90
6988;DHT22;3534;49.960;8.018;2022-10-16T06:08:16;15.80;99.90
6988;DHT22;3534;49.960;8.018;2022-10-16T06:10:43;15.90;99.90
6988;DHT22;3534;49.960;8.018;2022-10-16T06:13:10;15.90;99.90
6988;DHT22;3534;49.960;8.018;2022-10-16T06:15:38;15.80;99.90
6988;DHT22;3534;49.960;8.018;2022-10-16T06:18:07;15.80;99.90
6988;DHT22;3534;49.960;8.018;2022-10-16T06:20:34;15.80;99.90
6988;DHT22;3534;49.960;8.018;2022-10-16T06:23:00;15.80;99.90
6988;DHT22;3534;49.960;8.018;2022-10-16T06:25:27;15.80;99.90
6988;DHT22;3534;49.960;8.018;2022-10-16T06:27:54;15.70;99.90
6988;DHT22;3534;49.960;8.018;2022-10-16T06:30:20;15.70;99.90
6988;DHT22;3534;49.960;8.018;2022-10-16T06:32:48;15.70;99.90
6988;DHT22;3534;49.960;8.018;2022-10-16T06:35:15;15.70;99.90
6988;DHT22;3534;49.960;8.018;2022-10-16T06:37:42;15.70;99.90
6988;DHT22;3534;49.960;8.018;2022-10-16T06:40:09;15.80;99.90
6988;DHT22;3534;49.960;8.018;2022-10-16T06:42:35;15.80;99.90
6988;DHT22;3534;49.960;8.018;2022-10-16T06:45:03;15.80;99.90
6988;DHT22;3534;49.960;8.018;2022-10-16T06:47:29;15.80;99.90
6988;DHT22;3534;49.960;8.018;2022-10-16T06:49:57;15.80;99.90
6988;DHT22;3534;49.960;8.018;2022-10-16T06:52:24;15.70;99.90
6988;DHT22;3534;49.960;8.018;2022-10-16T06:54:51;15.70;99.90
6988;DHT22;3534;49.960;8.018;2022-10-16T06:57:18;15.70;99.90
6988;DHT22;3534;49.960;8.018;2022-10-16T06:59:44;15.80;99.90
6988;DHT22;3534;49.960;8.018;2022-10-16T07:02:11;15.80;99.90
6988;DHT22;3534;49.960;8.018;2022-10-16T07:04:38;15.80;99.90
6988;DHT22;3534;49.960;8.018;2022-10-16T07:07:06;15.80;99.90
6988;DHT22;3534;49.960;8.018;2022-10-16T07:09:33;15.80;99.90
6988;DHT22;3534;49.960;8.018;2022-10-16T07:11:59;15.80;99.90
6988;DHT22;3534;49.960;8.018;2022-10-16T07:14:26;15.80;99.90
6988;DHT22;3534;49.960;8.018;2022-10-16T07:16:53;15.80;99.90
6988;DHT22;3534;49.960;8.018;2022-10-16T07:19:20;15.80;99.90
6988;DHT22;3534;49.960;8.018;2022-10-16T07:21:46;15.80;99.90
6988;DHT22;3534;49.960;8.018;2022-10-16T07:24:15;15.90;99.90
6988;DHT22;3534;49.960;8.018;2022-10-16T07:26:44;15.90;99.90
6988;DHT22;3534;49.960;8.018;2022-10-16T07:29:12;15.90;99.90
6988;DHT22;3534;49.960;8.018;2022-10-16T07:31:40;15.90;99.90
6988;DHT22;3534;49.960;8.018;2022-10-16T07:34:07;16.00;99.90
6988;DHT22;3534;49.960;8.018;2022-10-16T07:36:34;16.00;99.90
6988;DHT22;3534;49.960;8.018;2022-10-16T07:39:01;15.90;99.90
6988;DHT22;3534;49.960;8.018;2022-10-16T07:41:29;16.00;99.90
6988;DHT22;3534;49.960;8.018;2022-10-16T07:43:58;16.00;99.90
6988;DHT22;3534;49.960;8.018;2022-10-16T07:46:26;16.00;99.90
6988;DHT22;3534;49.960;8.018;2022-10-16T07:48:53;16.00;99.90
6988;DHT22;3534;49.960;8.018;2022-10-16T07:51:20;16.00;99.90
6988;DHT22;3534;49.960;8.018;2022-10-16T07:53:48;16.00;99.90
6988;DHT22;3534;49.960;8.018;2022-10-16T07:56:16;16.00;99.90
6988;DHT22;3534;49.960;8.018;2022-10-16T07:58:45;16.00;99.90
6988;DHT22;3534;49.960;8.018;2022-10-16T08:01:13;16.00;99.90
6988;DHT22;3534;49.960;8.018;2022-10-16T08:03:42;16.00;99.90
6988;DHT22;3534;49.960;8.018;2022-10-16T08:06:08;16.00;99.90
6988;DHT22;3534;49.960;8.018;2022-10-16T08:08:35;16.10;99.90
6988;DHT22;3534;49.960;8.018;2022-10-16T08:11:02;16.10;99.90
6988;DHT22;3534;49.960;8.018;2022-10-16T08:13:29;16.10;99.90
6988;DHT22;3534;49.960;8.018;2022-10-16T08:15:57;16.10;99.90
6988;DHT22;3534;49.960;8.018;2022-10-16T08:18:24;16.20;99.90
6988;DHT22;3534;49.960;8.018;2022-10-16T08:20:55;16.20;99.90
6988;DHT22;3534;49.960;8.018;2022-10-16T08:23:23;16.30;99.90
6988;DHT22;3534;49.960;8.018;2022-10-16T08:25:51;16.30;99.90
6988;DHT22;3534;49.960;8.018;2022-10-16T08:28:18;16.40;99.90
6988;DHT22;3534;49.960;8.018;2022-10-16T08:30:45;16.40;99.90
6988;DHT22;3534;49.960;8.018;2022-10-16T08:33:13;16.30;99.90
6988;DHT22;3534;49.960;8.018;2022-10-16T08:35:40;16.30;99.90
6988;DHT22;3534;49.960;8.018;2022-10-16T08:38:07;16.30;99.90
6988;DHT22;3534;49.960;8.018;2022-10-16T08:40:36;16.30;99.90
6988;DHT22;3534;49.960;8.018;2022-10-16T08:43:20;16.30;99.90
6988;DHT22;3534;49.960;8.018;2022-10-16T08:46:00;16.40;99.90
6988;DHT22;3534;49.960;8.018;2022-10-16T08:48:39;16.40;99.90
6988;DHT22;3534;49.960;8.018;2022-10-16T08:51:12;16.50;99.90
6988;DHT22;3534;49.960;8.018;2022-10-16T08:53:45;16.50;99.90
6988;DHT22;3534;49.960;8.018;2022-10-16T08:56:15;16.50;99.90
6988;DHT22;3534;49.960;8.018;2022-10-16T08:58:44;16.50;99.90
6988;DHT22;3534;49.960;8.018;2022-10-16T09:01:13;16.60;99.90
6988;DHT22;3534;49.960;8.018;2022-10-16T09:04:01;16.60;99.90
6988;DHT22;3534;49.960;8.018;2022-10-16T09:06:49;16.60;99.90
6988;DHT22;3534;49.960;8.018;2022-10-16T09:09:28;16.60;99.90
6988;DHT22;3534;49.960;8.018;2022-10-16T09:12:04;16.70;99.90
6988;DHT22;3534;49.960;8.018;2022-10-16T09:14:44;16.70;99.90
6988;DHT22;3534;49.960;8.018;2022-10-16T09:17:30;16.70;99.90
6988;DHT22;3534;49.960;8.018;2022-10-16T09:23:13;16.70;99.90
6988;DHT22;3534;49.960;8.018;2022-10-16T09:25:43;16.80;99.90
6988;DHT22;3534;49.960;8.018;2022-10-16T09:28:10;16.80;99.90
6988;DHT22;3534;49.960;8.018;2022-10-16T09:30:37;16.90;99.90
6988;DHT22;3534;49.960;8.018;2022-10-16T09:33:05;16.90;99.90
6988;DHT22;3534;49.960;8.018;2022-10-16T09:35:37;17.00;99.90
6988;DHT22;3534;49.960;8.018;2022-10-16T09:38:04;17.00;99.90
6988;DHT22;3534;49.960;8.018;2022-10-16T09:40:33;17.10;99.90
6988;DHT22;3534;49.960;8.018;2022-10-16T09:43:20;17.10;99.90
6988;DHT22;3534;49.960;8.018;2022-10-16T09:45:56;17.20;99.90
6988;DHT22;3534;49.960;8.018;2022-10-16T09:48:26;17.30;99.90
6988;DHT22;3534;49.960;8.018;2022-10-16T09:51:01;17.30;99.90
6988;DHT22;3534;49.960;8.018;2022-10-16T09:53:39;17.30;99.90
6988;DHT22;3534;49.960;8.018;2022-10-16T09:56:06;17.30;99.90
6988;DHT22;3534;49.960;8.018;2022-10-16T09:58:33;17.30;99.90
6988;DHT22;3534;49.960;8.018;2022-10-16T10:01:00;17.40;99.90
6988;DHT22;3534;49.960;8.018;2022-10-16T10:03:35;17.50;99.90
6988;DHT22;3534;49.960;8.018;2022-10-16T10:06:14;17.60;99.90
6988;DHT22;3534;49.960;8.018;2022-10-16T10:08:53;17.70;99.90
6988;DHT22;3534;49.960;8.018;2022-10-16T10:11:42;17.80;99.90
6988;DHT22;3534;49.960;8.018;2022-10-16T10:14:20;17.90;99.90
6988;DHT22;3534;49.960;8.018;2022-10-16T10:16:47;18.00;99.90
6988;DHT22;3534;49.960;8.018;2022-10-16T10:19:15;18.00;99.90
6988;DHT22;3534;49.960;8.018;2022-10-16T10:21:44;18.10;99.90
6988;DHT22;3534;49.960;8.018;2022-10-16T10:24:13;18.10;99.90
6988;DHT22;3534;49.960;8.018;2022-10-16T10:26:46;18.20;99.90
6988;DHT22;3534;49.960;8.018;2022-10-16T10:29:21;18.20;99.90
6988;DHT22;3534;49.960;8.018;2022-10-16T10:31:55;18.30;99.90
6988;DHT22;3534;49.960;8.018;2022-10-16T10:34:36;18.30;99.90
6988;DHT22;3534;49.960;8.018;2022-10-16T10:37:22;18.30;99.90
6988;DHT22;3534;49.960;8.018;2022-10-16T10:39:54;18.30;99.90
6988;DHT22;3534;49.960;8.018;2022-10-16T10:42:28;18.30;99.90
6988;DHT22;3534;49.960;8.018;2022-10-16T10:45:16;18.30;99.90
6988;DHT22;3534;49.960;8.018;2022-10-16T10:47:50;18.40;99.90
6988;DHT22;3534;49.960;8.018;2022-10-16T10:50:25;18.40;99.90
6988;DHT22;3534;49.960;8.018;2022-10-16T10:53:06;18.40;99.90
6988;DHT22;3534;49.960;8.018;2022-10-16T10:58:33;18.40;99.90
6988;DHT22;3534;49.960;8.018;2022-10-16T11:01:08;18.50;99.90
6988;DHT22;3534;49.960;8.018;2022-10-16T11:03:55;18.70;99.90
6988;DHT22;3534;49.960;8.018;2022-10-16T11:06:26;18.80;99.90
6988;DHT22;3534;49.960;8.018;2022-10-16T11:09:02;18.80;99.90
6988;DHT22;3534;49.960;8.018;2022-10-16T11:11:36;18.90;99.90
6988;DHT22;3534;49.960;8.018;2022-10-16T11:14:09;18.90;99.90
6988;DHT22;3534;49.960;8.018;2022-10-16T11:16:42;19.00;99.90
6988;DHT22;3534;49.960;8.018;2022-10-16T11:19:13;19.00;99.90
6988;DHT22;3534;49.960;8.018;2022-10-16T11:21:44;19.00;99.90
6988;DHT22;3534;49.960;8.018;2022-10-16T11:24:22;19.10;99.90
6988;DHT22;3534;49.960;8.018;2022-10-16T11:26:52;19.10;99.90
6988;DHT22;3534;49.960;8.018;2022-10-16T11:29:25;19.20;99.90
6988;DHT22;3534;49.960;8.018;2022-10-16T11:31:57;19.20;99.90
6988;DHT22;3534;49.960;8.018;2022-10-16T11:34:28;19.20;99.90
6988;DHT22;3534;49.960;8.018;2022-10-16T11:37:02;19.30;99.90
6988;DHT22;3534;49.960;8.018;2022-10-16T11:39:33;19.30;99.90
6988;DHT22;3534;49.960;8.018;2022-10-16T11:42:04;19.40;99.90
6988;DHT22;3534;49.960;8.018;2022-10-16T11:44:42;19.40;99.90
6988;DHT22;3534;49.960;8.018;2022-10-16T11:47:22;19.40;99.90
6988;DHT22;3534;49.960;8.018;2022-10-16T11:49:55;19.50;99.90
6988;DHT22;3534;49.960;8.018;2022-10-16T11:52:28;19.50;99.90
6988;DHT22;3534;49.960;8.018;2022-10-16T11:55:02;19.50;99.90
6988;DHT22;3534;49.960;8.018;2022-10-16T11:57:33;19.50;99.90
6988;DHT22;3534;49.960;8.018;2022-10-16T12:00:05;19.60;99.90
6988;DHT22;3534;49.960;8.018;2022-10-16T12:02:44;19.60;99.90
6988;DHT22;3534;49.960;8.018;2022-10-16T12:05:22;19.60;99.90
6988;DHT22;3534;49.960;8.018;2022-10-16T12:07:57;19.70;99.90
6988;DHT22;3534;49.960;8.018;2022-10-16T12:10:29;19.70;99.90
6988;DHT22;3534;49.960;8.018;2022-10-16T12:13:03;19.70;99.90
6988;DHT22;3534;49.960;8.018;2022-10-16T12:15:31;19.70;99.90
6988;DHT22;3534;49.960;8.018;2022-10-16T12:17:59;19.70;99.90
6988;DHT22;3534;49.960;8.018;2022-10-16T12:20:28;19.80;99.90
6988;DHT22;3534;49.960;8.018;2022-10-16T12:22:59;19.80;99.90
6988;DHT22;3534;49.960;8.018;2022-10-16T12:25:30;19.80;99.90
6988;DHT22;3534;49.960;8.018;2022-10-16T12:28:03;19.90;99.90
6988;DHT22;3534;49.960;8.018;2022-10-16T12:30:31;20.00;99.90
6988;DHT22;3534;49.960;8.018;2022-10-16T12:33:00;20.10;99.90
6988;DHT22;3534;49.960;8.018;2022-10-16T12:35:30;20.10;99.90
6988;DHT22;3534;49.960;8.018;2022-10-16T12:38:12;20.00;99.90
6988;DHT22;3534;49.960;8.018;2022-10-16T12:40:43;19.90;99.90
6988;DHT22;3534;49.960;8.018;2022-10-16T12:43:12;19.80;99.90
6988;DHT22;3534;49.960;8.018;2022-10-16T12:45:39;19.80;99.90
6988;DHT22;3534;49.960;8.018;2022-10-16T12:48:20;19.80;99.90
6988;DHT22;3534;49.960;8.018;2022-10-16T12:50:47;19.80;99.90
6988;DHT22;3534;49.960;8.018;2022-10-16T12:53:19;19.80;99.90
6988;DHT22;3534;49.960;8.018;2022-10-16T12:55:53;19.80;99.90
6988;DHT22;3534;49.960;8.018;2022-10-16T12:58:35;19.90;99.90
6988;DHT22;3534;49.960;8.018;2022-10-16T13:01:10;19.90;99.90
6988;DHT22;3534;49.960;8.018;2022-10-16T13:04:04;19.90;99.90
6988;DHT22;3534;49.960;8.018;2022-10-16T13:06:38;20.00;99.90
6988;DHT22;3534;49.960;8.018;2022-10-16T13:09:25;20.10;99.90
6988;DHT22;3534;49.960;8.018;2022-10-16T13:12:11;20.10;99.90
6988;DHT22;3534;49.960;8.018;2022-10-16T13:15:03;20.10;99.90
6988;DHT22;3534;49.960;8.018;2022-10-16T13:17:39;20.10;99.90
6988;DHT22;3534;49.960;8.018;2022-10-16T13:20:16;20.10;99.90
6988;DHT22;3534;49.960;8.018;2022-10-16T13:22:51;20.10;99.90
6988;DHT22;3534;49.960;8.018;2022-10-16T13:25:27;20.10;99.90
6988;DHT22;3534;49.960;8.018;2022-10-16T13:27:59;20.00;99.90
6988;DHT22;3534;49.960;8.018;2022-10-16T13:30:28;20.00;99.90
6988;DHT22;3534;49.960;8.018;2022-10-16T13:32:59;20.00;99.90
6988;DHT22;3534;49.960;8.018;2022-10-16T13:35:28;20.00;99.90
6988;DHT22;3534;49.960;8.018;2022-10-16T13:38:13;20.00;99.90
6988;DHT22;3534;49.960;8.018;2022-10-16T13:40:50;19.90;99.90
6988;DHT22;3534;49.960;8.018;2022-10-16T13:43:20;20.00;99.90
6988;DHT22;3534;49.960;8.018;2022-10-16T13:45:56;19.90;99.90
6988;DHT22;3534;49.960;8.018;2022-10-16T13:48:23;19.90;99.90
6988;DHT22;3534;49.960;8.018;2022-10-16T13:51:00;20.00;99.90
6988;DHT22;3534;49.960;8.018;2022-10-16T13:53:29;20.00;99.90
6988;DHT22;3534;49.960;8.018;2022-10-16T13:55:56;20.00;99.90
6988;DHT22;3534;49.960;8.018;2022-10-16T13:58:24;20.00;99.90
6988;DHT22;3534;49.960;8.018;2022-10-16T14:00:56;20.00;99.90
6988;DHT22;3534;49.960;8.018;2022-10-16T14:03:23;20.00;99.90
6988;DHT22;3534;49.960;8.018;2022-10-16T14:05:52;20.10;99.90
6988;DHT22;3534;49.960;8.018;2022-10-16T14:08:20;20.10;99.90
6988;DHT22;3534;49.960;8.018;2022-10-16T14:10:48;20.00;99.90
6988;DHT22;3534;49.960;8.018;2022-10-16T14:13:18;20.00;99.90
6988;DHT22;3534;49.960;8.018;2022-10-16T14:15:49;20.00;99.90
6988;DHT22;3534;49.960;8.018;2022-10-16T14:18:20;20.00;99.90
6988;DHT22;3534;49.960;8.018;2022-10-16T14:20:49;20.00;99.90
6988;DHT22;3534;49.960;8.018;2022-10-16T14:23:21;20.00;99.90
6988;DHT22;3534;49.960;8.018;2022-10-16T14:25:48;20.10;99.90
6988;DHT22;3534;49.960;8.018;2022-10-16T14:28:17;20.10;99.90
6988;DHT22;3534;49.960;8.018;2022-10-16T14:30:52;20.10;99.90
6988;DHT22;3534;49.960;8.018;2022-10-16T14:33:22;20.10;99.90
6988;DHT22;3534;49.960;8.018;2022-10-16T14:36:01;20.00;99.90
6988;DHT22;3534;49.960;8.018;2022-10-16T14:38:28;20.00;99.90
6988;DHT22;3534;49.960;8.018;2022-10-16T14:40:57;19.90;99.90
6988;DHT22;3534;49.960;8.018;2022-10-16T14:43:31;19.90;99.90
6988;DHT22;3534;49.960;8.018;2022-10-16T14:46:01;20.00;99.90
6988;DHT22;3534;49.960;8.018;2022-10-16T14:48:29;20.00;99.90
6988;DHT22;3534;49.960;8.018;2022-10-16T14:50:56;20.00;99.90
6988;DHT22;3534;49.960;8.018;2022-10-16T14:53:22;19.90;99.90
6988;DHT22;3534;49.960;8.018;2022-10-16T14:55:49;19.90;99.90
6988;DHT22;3534;49.960;8.018;2022-10-16T14:58:18;19.90;99.90
6988;DHT22;3534;49.960;8.018;2022-10-16T15:00:45;19.90;99.90
6988;DHT22;3534;49.960;8.018;2022-10-16T15:03:14;19.90;99.90
6988;DHT22;3534;49.960;8.018;2022-10-16T15:05:41;19.90;99.90
6988;DHT22;3534;49.960;8.018;2022-10-16T15:08:07;20.00;99.90
6988;DHT22;3534;49.960;8.018;2022-10-16T15:10:38;19.90;99.90
6988;DHT22;3534;49.960;8.018;2022-10-16T15:13:06;19.90;99.90
6988;DHT22;3534;49.960;8.018;2022-10-16T15:15:34;19.90;99.90
6988;DHT22;3534;49.960;8.018;2022-10-16T15:18:02;19.90;99.90
6988;DHT22;3534;49.960;8.018;2022-10-16T15:20:32;19.90;99.90
6988;DHT22;3534;49.960;8.018;2022-10-16T15:23:00;19.80;99.90
6988;DHT22;3534;49.960;8.018;2022-10-16T15:25:33;19.80;99.90
6988;DHT22;3534;49.960;8.018;2022-10-16T15:28:01;19.80;99.90
6988;DHT22;3534;49.960;8.018;2022-10-16T15:30:28;19.70;99.90
6988;DHT22;3534;49.960;8.018;2022-10-16T15:32:55;19.70;99.90
6988;DHT22;3534;49.960;8.018;2022-10-16T15:35:22;19.70;99.90
6988;DHT22;3534;49.960;8.018;2022-10-16T15:37:50;19.60;99.90
6988;DHT22;3534;49.960;8.018;2022-10-16T15:40:18;19.70;99.90
6988;DHT22;3534;49.960;8.018;2022-10-16T15:42:45;19.60;99.90
6988;DHT22;3534;49.960;8.018;2022-10-16T15:45:13;19.60;99.90
6988;DHT22;3534;49.960;8.018;2022-10-16T15:47:41;19.60;99.90
6988;DHT22;3534;49.960;8.018;2022-10-16T15:50:09;19.60;99.90
6988;DHT22;3534;49.960;8.018;2022-10-16T15:52:37;19.60;99.90
6988;DHT22;3534;49.960;8.018;2022-10-16T15:55:07;19.60;99.90
6988;DHT22;3534;49.960;8.018;2022-10-16T15:57:34;19.60;99.90
6988;DHT22;3534;49.960;8.018;2022-10-16T16:00:05;19.50;99.90
6988;DHT22;3534;49.960;8.018;2022-10-16T16:02:32;19.50;99.90
6988;DHT22;3534;49.960;8.018;2022-10-16T16:04:58;19.50;99.90
6988;DHT22;3534;49.960;8.018;2022-10-16T16:07:25;19.50;99.90
6988;DHT22;3534;49.960;8.018;2022-10-16T16:09:52;19.50;99.90
6988;DHT22;3534;49.960;8.018;2022-10-16T16:12:21;19.50;99.90
6988;DHT22;3534;49.960;8.018;2022-10-16T16:14:47;19.40;99.90
6988;DHT22;3534;49.960;8.018;2022-10-16T16:17:14;19.40;99.90
6988;DHT22;3534;49.960;8.018;2022-10-16T16:19:41;19.40;99.90
6988;DHT22;3534;49.960;8.018;2022-10-16T16:22:07;19.40;99.90
6988;DHT22;3534;49.960;8.018;2022-10-16T16:24:34;19.40;99.90
6988;DHT22;3534;49.960;8.018;2022-10-16T16:27:01;19.40;99.90